createdAt,value
2018-11-21T00:00:32.622Z,1.50
2018-11-21T00:03:01.293Z,1.50
2018-11-21T00:05:29.800Z,1.40
2018-11-21T00:07:58.356Z,1.50
2018-11-21T00:10:26.893Z,1.50
2018-11-21T00:12:56.652Z,1.50
2018-11-21T00:15:25.163Z,1.60
2018-11-21T00:17:53.693Z,1.70
2018-11-21T00:20:22.196Z,1.70
2018-11-21T00:22:50.775Z,1.70
2018-11-21T00:25:19.313Z,1.70
2018-11-21T00:27:47.822Z,1.70
2018-11-21T00:30:16.768Z,1.70
2018-11-21T00:32:45.324Z,1.80
2018-11-21T00:35:13.954Z,1.80
2018-11-21T00:37:42.470Z,1.80
2018-11-21T00:40:12.416Z,1.80
2018-11-21T00:42:46.629Z,1.80
2018-11-21T00:45:10.130Z,1.90
2018-11-21T00:47:38.664Z,1.70
2018-11-21T00:50:07.482Z,1.70
2018-11-21T00:52:36.164Z,1.70
2018-11-21T00:55:05.014Z,1.70
2018-11-21T00:57:33.533Z,1.70
2018-11-21T01:00:02.077Z,1.60
2018-11-21T01:02:30.604Z,1.60
2018-11-21T01:04:59.674Z,1.70
2018-11-21T01:07:28.193Z,1.70
2018-11-21T01:09:56.811Z,1.70
2018-11-21T01:12:25.338Z,1.70
2018-11-21T01:14:53.867Z,1.60
2018-11-21T01:17:22.400Z,1.50
2018-11-21T01:19:51.093Z,1.50
2018-11-21T01:22:19.630Z,1.60
2018-11-21T01:24:48.250Z,1.60
2018-11-21T01:27:16.766Z,1.60
2018-11-21T01:29:45.322Z,1.60
2018-11-21T01:32:13.884Z,1.70
2018-11-21T01:34:42.452Z,1.70
2018-11-21T01:37:10.989Z,1.50
2018-11-21T01:39:39.615Z,1.40
2018-11-21T01:42:08.204Z,1.40
2018-11-21T01:44:36.701Z,1.50
2018-11-21T01:47:05.427Z,1.60
2018-11-21T01:49:33.960Z,1.60
2018-11-21T01:52:02.494Z,1.60
2018-11-21T01:54:30.995Z,1.40
2018-11-21T01:56:59.542Z,1.40
2018-11-21T01:59:28.050Z,1.50
2018-11-21T02:01:56.592Z,1.40
2018-11-21T02:04:25.154Z,1.50
2018-11-21T02:06:53.691Z,1.40
2018-11-21T02:09:22.262Z,1.50
2018-11-21T02:11:50.864Z,1.40
2018-11-21T02:14:19.577Z,1.40
2018-11-21T02:16:48.120Z,1.40
2018-11-21T02:19:16.617Z,1.40
2018-11-21T02:21:45.145Z,1.50
2018-11-21T02:24:13.653Z,1.50
2018-11-21T02:26:42.232Z,1.40
2018-11-21T02:29:10.749Z,1.40
2018-11-21T02:31:39.286Z,1.40
2018-11-21T02:34:07.830Z,1.40
2018-11-21T02:36:36.414Z,1.40
2018-11-21T02:39:08.124Z,1.40
2018-11-21T02:41:36.650Z,1.50
2018-11-21T02:44:05.430Z,1.50
2018-11-21T02:46:34.060Z,1.50
2018-11-21T02:49:02.576Z,1.50
2018-11-21T02:51:31.150Z,1.60
2018-11-21T02:53:59.698Z,1.60
2018-11-21T02:57:05.865Z,1.70
2018-11-21T02:59:34.381Z,1.70
2018-11-21T03:02:02.970Z,1.80
2018-11-21T03:04:31.522Z,1.80
2018-11-21T03:07:00.236Z,1.80
2018-11-21T03:09:28.760Z,1.80
2018-11-21T03:11:57.240Z,1.70
2018-11-21T03:14:25.862Z,1.50
2018-11-21T03:16:54.384Z,1.50
2018-11-21T03:19:22.971Z,1.40
2018-11-21T03:21:51.506Z,1.40
2018-11-21T03:24:20.071Z,1.30
2018-11-21T03:26:48.611Z,1.40
2018-11-21T03:29:17.168Z,1.50
2018-11-21T03:31:45.762Z,1.50
2018-11-21T03:34:14.295Z,1.60
2018-11-21T03:36:50.533Z,1.70
2018-11-21T03:39:20.466Z,1.80
2018-11-21T03:41:48.960Z,1.80
2018-11-21T03:44:17.581Z,1.90
2018-11-21T03:46:47.229Z,1.90
2018-11-21T03:49:16.242Z,1.90
2018-11-21T03:51:44.787Z,2.00
2018-11-21T03:54:13.448Z,2.00
2018-11-21T03:56:42.163Z,2.00
2018-11-21T03:59:10.983Z,2.00
2018-11-21T04:01:39.771Z,2.00
2018-11-21T04:04:08.861Z,2.00
2018-11-21T04:06:37.375Z,2.00
2018-11-21T04:09:10.251Z,2.00
2018-11-21T04:11:38.794Z,2.00
2018-11-21T04:14:07.618Z,2.00
2018-11-21T04:16:36.130Z,2.00
2018-11-21T04:19:04.820Z,1.90
2018-11-21T04:21:33.403Z,2.00
2018-11-21T04:24:02.082Z,1.90
2018-11-21T04:26:30.585Z,1.80
2018-11-21T04:28:59.180Z,1.70
2018-11-21T04:31:27.684Z,1.70
2018-11-21T04:33:56.203Z,1.80
2018-11-21T04:36:24.735Z,1.80
2018-11-21T04:38:53.295Z,1.90
2018-11-21T04:41:21.841Z,1.90
2018-11-21T04:43:50.356Z,1.90
2018-11-21T04:46:18.891Z,2.00
2018-11-21T04:48:47.381Z,1.90
2018-11-21T04:51:15.920Z,1.90
2018-11-21T04:53:44.432Z,1.80
2018-11-21T04:56:12.986Z,1.70
2018-11-21T04:58:41.482Z,1.70
2018-11-21T05:01:10.067Z,1.70
2018-11-21T05:03:38.714Z,1.80
2018-11-21T05:06:07.369Z,1.80
2018-11-21T05:08:35.898Z,1.80
2018-11-21T05:11:04.490Z,1.80
2018-11-21T05:13:33.009Z,1.80
2018-11-21T05:16:01.551Z,1.70
2018-11-21T05:18:30.141Z,1.80
2018-11-21T05:20:58.751Z,1.90
2018-11-21T05:23:27.274Z,1.90
2018-11-21T05:25:55.814Z,1.90
2018-11-21T05:28:24.612Z,1.90
2018-11-21T05:30:53.196Z,1.80
2018-11-21T05:33:21.759Z,1.70
2018-11-21T05:35:50.266Z,1.70
2018-11-21T05:38:18.788Z,1.70
2018-11-21T05:40:47.364Z,1.70
2018-11-21T05:43:15.862Z,1.70
2018-11-21T05:45:44.442Z,1.70
2018-11-21T05:48:12.994Z,1.70
2018-11-21T05:50:41.555Z,1.80
2018-11-21T05:53:10.109Z,1.80
2018-11-21T05:55:38.645Z,1.70
2018-11-21T05:58:07.202Z,1.70
2018-11-21T06:00:35.777Z,1.70
2018-11-21T06:03:04.300Z,1.70
2018-11-21T06:05:32.880Z,1.80
2018-11-21T06:08:01.893Z,1.80
2018-11-21T06:10:30.449Z,1.90
2018-11-21T06:12:58.978Z,2.00
2018-11-21T06:15:27.704Z,2.00
2018-11-21T06:17:56.210Z,1.90
2018-11-21T06:20:24.793Z,1.80
2018-11-21T06:22:53.348Z,1.90
2018-11-21T06:25:21.890Z,1.90
2018-11-21T06:27:50.440Z,2.00
2018-11-21T06:30:18.977Z,2.00
2018-11-21T06:32:47.528Z,2.00
2018-11-21T06:35:16.177Z,2.10
2018-11-21T06:37:44.722Z,2.10
2018-11-21T06:40:14.586Z,2.20
2018-11-21T06:42:52.808Z,2.20
2018-11-21T06:45:23.319Z,2.20
2018-11-21T06:47:51.898Z,2.20
2018-11-21T06:50:20.535Z,2.30
2018-11-21T06:52:49.074Z,2.30
2018-11-21T06:55:17.598Z,2.20
2018-11-21T06:57:46.193Z,2.10
2018-11-21T07:00:14.781Z,2.10
2018-11-21T07:02:43.303Z,2.10
2018-11-21T07:05:11.935Z,2.10
2018-11-21T07:07:40.471Z,2.20
2018-11-21T07:10:14.179Z,2.20
2018-11-21T07:12:43.296Z,2.20
2018-11-21T07:15:11.773Z,2.30
2018-11-21T07:17:40.335Z,2.20
2018-11-21T07:20:10.729Z,2.30
2018-11-21T07:22:39.481Z,2.30
2018-11-21T07:25:18.736Z,2.20
2018-11-21T07:27:47.525Z,2.30
2018-11-21T07:30:16.779Z,2.30
2018-11-21T07:32:45.369Z,2.00
2018-11-21T07:35:17.760Z,2.00
2018-11-21T07:37:43.076Z,2.00
2018-11-21T07:40:13.087Z,2.10
2018-11-21T07:42:41.759Z,2.20
2018-11-21T07:45:11.840Z,2.30
2018-11-21T07:47:40.996Z,2.30
2018-11-21T07:50:12.177Z,2.10
2018-11-21T07:52:41.040Z,2.10
2018-11-21T07:55:10.284Z,2.20
2018-11-21T07:57:46.529Z,2.30
2018-11-21T08:01:12.743Z,2.30
2018-11-21T08:04:03.102Z,2.30
2018-11-21T08:06:53.204Z,2.30
2018-11-21T08:09:39.869Z,2.10
2018-11-21T08:12:26.206Z,2.00
2018-11-21T08:15:19.301Z,1.90
2018-11-21T08:18:13.488Z,1.90
2018-11-21T08:21:10.086Z,1.90
2018-11-21T08:23:56.758Z,2.00
2018-11-21T08:26:44.393Z,2.00
2018-11-21T08:29:12.961Z,1.90
2018-11-21T08:31:44.701Z,1.90
2018-11-21T08:34:13.248Z,1.90
2018-11-21T08:36:41.730Z,1.90
2018-11-21T08:39:10.371Z,2.00
2018-11-21T08:41:38.908Z,2.10
2018-11-21T08:44:07.676Z,2.10
2018-11-21T08:46:36.207Z,2.20
2018-11-21T08:49:04.832Z,2.30
2018-11-21T08:51:33.350Z,2.20
2018-11-21T08:54:01.902Z,2.30
2018-11-21T08:56:30.421Z,2.30
2018-11-21T08:58:58.970Z,2.40
2018-11-21T09:01:27.551Z,2.40
2018-11-21T09:03:56.128Z,2.30
2018-11-21T09:06:24.724Z,2.20
2018-11-21T09:08:53.261Z,2.20
2018-11-21T09:11:21.724Z,2.80
2018-11-21T09:13:53.178Z,2.60
2018-11-21T09:16:18.784Z,2.30
2018-11-21T09:18:47.297Z,2.30
2018-11-21T09:21:15.769Z,2.30
2018-11-21T09:23:44.284Z,2.40
2018-11-21T09:26:12.871Z,2.30
2018-11-21T09:28:41.441Z,2.30
2018-11-21T09:31:10.041Z,2.40
2018-11-21T09:33:38.598Z,2.30
2018-11-21T09:36:07.171Z,2.20
2018-11-21T09:38:35.674Z,2.30
2018-11-21T09:41:04.598Z,2.30
2018-11-21T09:43:32.769Z,2.20
2018-11-21T09:46:01.557Z,2.30
2018-11-21T09:48:30.074Z,2.40
2018-11-21T09:50:58.625Z,2.50
2018-11-21T09:53:27.224Z,2.50
2018-11-21T09:55:55.808Z,2.40
2018-11-21T09:58:24.350Z,2.40
2018-11-21T10:01:29.301Z,2.40
2018-11-21T10:04:00.918Z,2.40
2018-11-21T10:06:31.724Z,2.30
2018-11-21T10:09:19.356Z,2.30
2018-11-21T10:11:47.985Z,2.20
2018-11-21T10:14:16.518Z,2.30
2018-11-21T10:16:45.076Z,2.30
2018-11-21T10:19:13.685Z,2.30
2018-11-21T10:21:42.192Z,2.30
2018-11-21T10:24:10.694Z,2.30
2018-11-21T10:26:39.231Z,2.40
2018-11-21T10:29:07.787Z,2.40
2018-11-21T10:31:36.420Z,2.50
2018-11-21T10:34:04.966Z,2.60
2018-11-21T10:36:33.572Z,2.70
2018-11-21T10:39:02.114Z,2.70
2018-11-21T10:41:30.658Z,2.80
2018-11-21T10:43:59.250Z,2.80
2018-11-21T10:46:27.805Z,2.70
2018-11-21T10:48:56.325Z,2.80
2018-11-21T10:51:24.863Z,2.90
2018-11-21T10:53:53.373Z,3.00
2018-11-21T10:56:21.905Z,3.00
2018-11-21T10:58:50.414Z,3.00
2018-11-21T11:01:28.115Z,3.10
2018-11-21T11:03:59.368Z,3.20
2018-11-21T11:06:45.679Z,3.40
2018-11-21T11:09:36.090Z,3.50
2018-11-21T11:12:36.006Z,3.60
2018-11-21T11:15:23.552Z,3.60
2018-11-21T11:18:11.204Z,3.60
2018-11-21T11:21:11.681Z,3.50
2018-11-21T11:24:13.208Z,3.40
2018-11-21T11:27:06.544Z,3.40
2018-11-21T11:29:44.133Z,3.50
2018-11-21T11:32:19.480Z,3.20
2018-11-21T11:35:06.299Z,3.20
2018-11-21T11:37:55.244Z,3.30
2018-11-21T11:40:48.801Z,3.40
2018-11-21T11:43:54.497Z,3.40
2018-11-21T11:46:36.166Z,3.50
2018-11-21T11:49:32.959Z,3.40
2018-11-21T11:52:15.630Z,3.40
2018-11-21T11:55:06.254Z,3.40
2018-11-21T11:58:05.806Z,3.50
2018-11-21T12:00:52.470Z,3.50
2018-11-21T12:03:43.101Z,3.60
2018-11-21T12:06:43.112Z,3.60
2018-11-21T12:09:37.846Z,3.60
2018-11-21T12:12:32.863Z,3.50
2018-11-21T12:15:18.027Z,3.50
2018-11-21T12:18:05.688Z,3.60
2018-11-21T12:20:59.832Z,3.60
2018-11-21T12:23:46.471Z,3.60
2018-11-21T12:26:39.799Z,3.50
2018-11-21T12:29:41.893Z,3.50
2018-11-21T12:32:27.583Z,3.60
2018-11-21T12:35:14.010Z,3.60
2018-11-21T12:38:02.056Z,3.60
2018-11-21T12:40:48.319Z,3.60
2018-11-21T12:43:36.812Z,3.70
2018-11-21T12:46:22.850Z,3.70
2018-11-21T12:49:09.100Z,3.80
2018-11-21T12:51:55.731Z,3.80
2018-11-21T12:54:46.332Z,3.80
2018-11-21T12:57:39.873Z,3.80
2018-11-21T13:00:30.803Z,3.70
2018-11-21T13:03:04.221Z,3.70
2018-11-21T13:06:00.567Z,3.70
2018-11-21T13:08:54.002Z,3.50
2018-11-21T13:11:46.017Z,3.60
2018-11-21T13:14:40.500Z,3.50
2018-11-21T13:17:46.120Z,3.40
2018-11-21T13:20:40.270Z,3.30
2018-11-21T13:23:30.902Z,3.00
2018-11-21T13:26:17.521Z,3.00
2018-11-21T13:29:03.567Z,3.10
2018-11-21T13:31:43.057Z,3.20
2018-11-21T13:34:20.353Z,3.20
2018-11-21T13:37:23.228Z,3.30
2018-11-21T13:40:07.179Z,3.50
2018-11-21T13:43:00.882Z,3.30
2018-11-21T13:45:47.211Z,3.30
2018-11-21T13:48:33.471Z,3.20
2018-11-21T13:51:21.226Z,3.30
2018-11-21T13:54:06.275Z,3.20
2018-11-21T13:56:34.780Z,3.30
2018-11-21T13:59:03.347Z,3.40
2018-11-21T14:01:31.947Z,3.40
2018-11-21T14:04:00.589Z,3.40
2018-11-21T14:06:29.118Z,3.40
2018-11-21T14:08:57.645Z,3.40
2018-11-21T14:11:26.173Z,3.30
2018-11-21T14:13:57.529Z,3.40
2018-11-21T14:16:23.158Z,3.30
2018-11-21T14:18:51.688Z,3.40
2018-11-21T14:21:20.256Z,3.40
2018-11-21T14:23:48.789Z,3.40
2018-11-21T14:26:17.611Z,3.30
2018-11-21T14:28:46.153Z,3.20
2018-11-21T14:31:14.759Z,3.20
2018-11-21T14:33:43.283Z,3.10
2018-11-21T14:36:11.938Z,2.90
2018-11-21T14:38:40.507Z,2.80
2018-11-21T14:41:09.071Z,2.80
2018-11-21T14:43:37.577Z,2.90
2018-11-21T14:46:07.075Z,3.10
2018-11-21T14:48:35.589Z,3.10
2018-11-21T14:51:04.070Z,3.30
2018-11-21T14:53:32.588Z,3.30
2018-11-21T14:56:01.094Z,3.30
2018-11-21T14:58:29.645Z,3.30
2018-11-21T15:00:58.198Z,3.30
2018-11-21T15:03:26.781Z,3.40
2018-11-21T15:05:55.407Z,3.40
2018-11-21T15:08:23.974Z,3.40
2018-11-21T15:10:52.522Z,3.40
2018-11-21T15:13:21.069Z,3.40
2018-11-21T15:15:49.603Z,3.40
2018-11-21T15:18:18.167Z,3.40
2018-11-21T15:20:46.897Z,3.50
2018-11-21T15:23:15.452Z,3.40
2018-11-21T15:25:44.034Z,3.30
2018-11-21T15:28:12.576Z,3.20
2018-11-21T15:30:41.162Z,3.30
2018-11-21T15:33:09.706Z,3.10
2018-11-21T15:35:38.240Z,3.20
2018-11-21T15:38:06.786Z,3.20
2018-11-21T15:40:35.304Z,3.20
2018-11-21T15:43:03.867Z,3.20
2018-11-21T15:45:32.531Z,3.20
2018-11-21T15:48:01.865Z,3.20
2018-11-21T15:50:31.246Z,3.20
2018-11-21T15:52:59.795Z,3.20
2018-11-21T15:55:28.313Z,3.30
2018-11-21T15:57:56.948Z,3.20
2018-11-21T16:00:29.765Z,3.10
2018-11-21T16:03:00.636Z,3.10
2018-11-21T16:05:29.467Z,3.10
2018-11-21T16:08:03.250Z,3.10
2018-11-21T16:10:33.880Z,3.10
2018-11-21T16:13:02.718Z,3.20
2018-11-21T16:15:35.644Z,3.10
2018-11-21T16:18:00.708Z,3.20
2018-11-21T16:20:29.242Z,3.20
2018-11-21T16:22:57.744Z,3.20
2018-11-21T16:25:26.303Z,3.30
